Time;durP1;ratioP1;P1;durP2;ratioP2;P2;SDS_P1;SDS_P2;PMS_P1;PMS_P2;Temp;Humidity;BMP_temperature;BMP_pressure;BME280_temperature;BME280_humidity;BME280_pressure;Samples;Min_cycle;Max_cycle;Signal;HPM_P1;HPM_P2
2022/12/11 00:00:14;;;;;;;;;;;;;;;-0.21;61.65;100022.81;5040912;28;20372;-50
2022/12/11 00:02:39;;;;;;;;;;;;;;;-0.05;61.09;100023.09;5040316;28;20018;-51
2022/12/11 00:05:05;;;;;;;;;;;;;;;0.06;61.25;100025.84;5044426;28;19987;-51
2022/12/11 00:07:30;;;;;;;;;;;;;;;0.25;61.19;100024.41;5048450;28;20388;-51
2022/12/11 00:09:55;;;;;;;;;;;;;;;0.38;60.38;100015.97;5040826;28;19931;-52
2022/12/11 00:12:21;;;;;;;;;;;;;;;0.41;60.38;100016.00;5038086;28;19979;-52
2022/12/11 00:14:46;;;;;;;;;;;;;;;0.45;60.24;100015.22;5041845;28;20007;-51
2022/12/11 00:17:12;;;;;;;;;;;;;;;0.54;60.14;100016.19;5042151;28;19928;-54
2022/12/11 00:19:37;;;;;;;;;;;;;;;0.76;59.55;100015.59;5035942;28;20388;-55
2022/12/11 00:22:02;;;;;;;;;;;;;;;0.87;59.25;100010.53;5037354;28;19925;-51
2022/12/11 00:24:27;;;;;;;;;;;;;;;1.00;58.84;100007.25;5037062;28;19921;-50
2022/12/11 00:26:53;;;;;;;;;;;;;;;0.98;58.42;100016.72;5037638;28;19925;-54
2022/12/11 00:29:18;;;;;;;;;;;;;;;0.93;58.68;100010.63;5039437;28;19921;-53
2022/12/11 00:31:43;;;;;;;;;;;;;;;0.81;58.77;100002.72;5050361;28;19921;-50
2022/12/11 00:34:10;;;;;;;;;;;;;;;0.81;59.00;100001.00;5046592;28;20015;-53
2022/12/11 00:36:36;;;;;;;;;;;;;;;0.89;58.90;100001.09;5037205;28;19921;-52
2022/12/11 00:39:02;;;;;;;;;;;;;;;0.78;58.88;100003.53;5037636;28;19922;-50
2022/12/11 00:41:27;;;;;;;;;;;;;;;0.60;59.60;99998.13;5038725;28;20410;-51
2022/12/11 00:43:53;;;;;;;;;;;;;;;0.59;59.95;100006.75;5051874;28;19929;-53
2022/12/11 00:46:18;;;;;;;;;;;;;;;0.63;59.62;99999.03;5051755;28;19925;-51
2022/12/11 00:48:45;;;;;;;;;;;;;;;0.48;59.83;99997.16;5041607;28;19965;-49
2022/12/11 00:51:10;;;;;;;;;;;;;;;0.52;60.15;100000.66;5047108;28;20395;-50
2022/12/11 00:53:36;;;;;;;;;;;;;;;0.56;60.24;100001.53;5043684;28;19947;-51
2022/12/11 00:56:07;;;;;;;;;;;;;;;0.66;59.87;100006.84;5049307;28;20447;-50
2022/12/11 00:58:33;;;;;;;;;;;;;;;0.52;60.06;99998.06;5049845;28;19921;-52
2022/12/11 01:01:04;;;;;;;;;;;;;;;0.60;59.96;100001.63;5044809;28;19925;-55
2022/12/11 01:03:29;;;;;;;;;;;;;;;0.57;59.95;99999.00;5037906;28;19922;-54
2022/12/11 01:05:54;;;;;;;;;;;;;;;0.63;59.80;100006.81;5041607;28;19932;-50
2022/12/11 01:08:19;;;;;;;;;;;;;;;0.67;59.93;99999.97;5050347;28;20442;-53
2022/12/11 01:10:45;;;;;;;;;;;;;;;0.64;59.93;100005.97;5049496;28;20011;-51
2022/12/11 01:13:10;;;;;;;;;;;;;;;0.76;59.81;100001.78;5051613;28;19921;-51
2022/12/11 01:15:40;;;;;;;;;;;;;;;0.78;59.76;100000.09;5043738;28;19951;-51
2022/12/11 01:18:05;;;;;;;;;;;;;;;0.69;59.80;100001.72;5036688;28;19963;-50
2022/12/11 01:20:30;;;;;;;;;;;;;;;0.87;59.66;99998.47;5035168;28;19952;-50
2022/12/11 01:22:57;;;;;;;;;;;;;;;0.89;59.78;99993.34;5044447;28;19933;-50
2022/12/11 01:25:22;;;;;;;;;;;;;;;1.01;59.44;99990.00;5039111;28;20381;-53
2022/12/11 01:27:51;;;;;;;;;;;;;;;1.07;59.19;99993.50;5046166;28;19960;-51
2022/12/11 01:30:17;;;;;;;;;;;;;;;1.17;58.95;99997.94;5048671;28;19925;-55
2022/12/11 01:32:43;;;;;;;;;;;;;;;1.30;59.03;99998.06;5033154;28;19932;-53
2022/12/11 01:35:09;;;;;;;;;;;;;;;1.33;58.82;99990.34;5037042;28;19925;-52
2022/12/11 01:37:35;;;;;;;;;;;;;;;1.45;58.45;99990.44;5045505;28;19925;-53
2022/12/11 01:40:00;;;;;;;;;;;;;;;1.52;58.47;99978.41;5036622;28;20274;-50
2022/12/11 01:42:28;;;;;;;;;;;;;;;1.56;58.05;99977.59;5037845;28;19932;-53
2022/12/11 01:45:12;;;;;;;;;;;;;;;1.65;57.89;99967.31;5042126;28;19925;-51
2022/12/11 01:47:37;;;;;;;;;;;;;;;1.81;57.94;99969.16;5040470;28;20380;-51
2022/12/11 01:50:02;;;;;;;;;;;;;;;1.90;57.50;99971.81;5046393;28;20066;-51
2022/12/11 01:52:28;;;;;;;;;;;;;;;1.95;57.47;99971.84;5050347;28;19924;-54
2022/12/11 01:54:53;;;;;;;;;;;;;;;1.93;57.26;99964.06;5047574;28;19927;-50
2022/12/11 01:57:18;;;;;;;;;;;;;;;2.00;57.39;99953.75;5050439;28;19929;-50
2022/12/11 01:59:45;;;;;;;;;;;;;;;2.00;57.46;99962.38;5048682;28;20046;-49
2022/12/11 02:02:19;;;;;;;;;;;;;;;1.82;57.53;99951.88;5041753;28;19920;-51
2022/12/11 02:04:45;;;;;;;;;;;;;;;1.70;58.04;99955.25;5037083;28;19922;-49
2022/12/11 02:07:11;;;;;;;;;;;;;;;1.67;58.09;99956.09;5036020;28;19987;-50
2022/12/11 02:09:38;;;;;;;;;;;;;;;1.46;58.72;99951.63;5044667;28;20276;-50
2022/12/11 02:12:22;;;;;;;;;;;;;;;1.60;58.67;99949.16;5050224;28;19920;-50
2022/12/11 02:15:06;;;;;;;;;;;;;;;1.59;58.63;99951.72;5043087;28;19927;-49
2022/12/11 02:17:39;;;;;;;;;;;;;;;1.81;58.32;99947.56;5035933;28;19943;-50
2022/12/11 02:20:23;;;;;;;;;;;;;;;1.83;58.17;99946.69;5035730;28;20268;-53
2022/12/11 02:22:58;;;;;;;;;;;;;;;1.74;58.36;99946.66;5044070;28;19921;-50
2022/12/11 02:25:42;;;;;;;;;;;;;;;1.62;58.40;99944.84;5049020;28;19947;-51
2022/12/11 02:28:22;;;;;;;;;;;;;;;1.79;58.24;99949.25;5044627;28;20428;-49
2022/12/11 02:30:50;;;;;;;;;;;;;;;1.88;57.87;99950.22;5041061;28;19951;-50
2022/12/11 02:33:19;;;;;;;;;;;;;;;1.97;57.96;99952.00;5042483;28;20396;-53
2022/12/11 02:35:45;;;;;;;;;;;;;;;1.89;58.05;99951.94;5036793;28;19917;-52
2022/12/11 02:38:15;;;;;;;;;;;;;;;1.90;57.91;99958.00;5034952;28;20262;-52
2022/12/11 02:40:42;;;;;;;;;;;;;;;1.91;58.03;99964.91;5041265;28;20003;-54
2022/12/11 02:43:10;;;;;;;;;;;;;;;1.86;58.01;99961.41;5039739;28;19921;-52
2022/12/11 02:45:37;;;;;;;;;;;;;;;1.86;57.86;99959.69;5046417;28;19917;-51
2022/12/11 02:48:04;;;;;;;;;;;;;;;2.02;57.78;99963.25;5045715;28;19924;-51
2022/12/11 02:50:30;;;;;;;;;;;;;;;2.03;57.72;99964.97;5053693;28;20383;-49
2022/12/11 02:52:56;;;;;;;;;;;;;;;2.10;57.67;99965.88;5052702;28;19936;-50
2022/12/11 02:55:23;;;;;;;;;;;;;;;2.15;57.55;99959.00;5052698;28;20357;-50
2022/12/11 02:57:56;;;;;;;;;;;;;;;2.18;57.56;99959.88;5051852;28;19974;-49
2022/12/11 03:00:21;;;;;;;;;;;;;;;2.27;57.62;99959.06;5051169;28;20434;-50
2022/12/11 03:02:46;;;;;;;;;;;;;;;2.21;57.13;99949.53;5043195;28;19933;-51
2022/12/11 03:05:12;;;;;;;;;;;;;;;2.19;57.32;99950.38;5039399;28;19921;-53
2022/12/11 03:07:38;;;;;;;;;;;;;;;2.16;57.42;99945.19;5047373;28;19928;-53
2022/12/11 03:10:05;;;;;;;;;;;;;;;2.05;57.53;99955.50;5053370;28;20028;-50
2022/12/11 03:12:33;;;;;;;;;;;;;;;2.19;57.58;99942.59;5051543;28;19921;-53
2022/12/11 03:14:59;;;;;;;;;;;;;;;2.18;57.71;99944.34;5039801;28;19927;-52
2022/12/11 03:17:31;;;;;;;;;;;;;;;2.27;57.67;99950.41;5039081;28;19925;-49
2022/12/11 03:20:08;;;;;;;;;;;;;;;2.26;57.66;99953.88;5051437;28;19968;-50
2022/12/11 03:22:44;;;;;;;;;;;;;;;2.19;57.69;99953.88;5051383;28;20350;-49
2022/12/11 03:25:14;;;;;;;;;;;;;;;2.19;57.47;99948.69;5044491;28;20396;-53
2022/12/11 03:27:43;;;;;;;;;;;;;;;2.20;57.72;99947.81;5049403;28;19927;-50
2022/12/11 03:30:11;;;;;;;;;;;;;;;2.24;57.51;99948.69;5039187;28;19921;-53
2022/12/11 03:32:47;;;;;;;;;;;;;;;2.26;57.61;99938.31;5047468;28;19921;-52
2022/12/11 03:35:25;;;;;;;;;;;;;;;2.40;57.34;99939.28;5042414;28;20011;-55
2022/12/11 03:37:52;;;;;;;;;;;;;;;2.32;56.80;99935.78;5039393;28;20029;-50
2022/12/11 03:40:19;;;;;;;;;;;;;;;2.20;56.99;99937.44;5038022;28;20361;-50
2022/12/11 03:42:46;;;;;;;;;;;;;;;2.34;56.98;99936.63;5039512;28;20383;-50
2022/12/11 03:45:12;;;;;;;;;;;;;;;2.16;56.85;99933.09;5037444;28;19921;-50
2022/12/11 03:47:38;;;;;;;;;;;;;;;2.19;56.91;99933.13;5038133;28;19922;-52
2022/12/11 03:50:07;;;;;;;;;;;;;;;2.19;56.92;99921.88;5049736;28;19969;-53
2022/12/11 03:52:33;;;;;;;;;;;;;;;2.10;56.87;99922.69;5046119;28;19925;-53
2022/12/11 03:55:00;;;;;;;;;;;;;;;2.16;56.91;99922.72;5038928;28;20005;-50
2022/12/11 03:57:29;;;;;;;;;;;;;;;2.08;56.92;99927.00;5046360;28;19928;-51
2022/12/11 03:59:57;;;;;;;;;;;;;;;2.15;56.84;99920.97;5050767;28;20462;-48
2022/12/11 04:02:22;;;;;;;;;;;;;;;1.90;57.21;99921.72;5046444;28;19933;-51
2022/12/11 04:04:47;;;;;;;;;;;;;;;2.09;57.09;99922.69;5049986;28;19929;-50
2022/12/11 04:07:12;;;;;;;;;;;;;;;2.17;56.95;99929.66;5051932;28;19925;-50
2022/12/11 04:09:38;;;;;;;;;;;;;;;2.22;56.69;99940.91;5045955;28;19921;-50
2022/12/11 04:12:03;;;;;;;;;;;;;;;2.33;56.82;99937.50;5051204;28;19925;-52
2022/12/11 04:24:13;;;;;;;;;;;;;;;2.26;56.72;99920.19;5048228;28;20012;-53
2022/12/11 04:25:25;;;;;;;;;;;;;;;2.16;56.94;99919.28;5052233;28;19947;-49
2022/12/11 04:27:51;;;;;;;;;;;;;;;1.98;57.12;99922.63;5049452;28;20381;-52
2022/12/11 04:30:19;;;;;;;;;;;;;;;1.90;57.29;99916.53;5052412;28;19929;-51
2022/12/11 04:32:44;;;;;;;;;;;;;;;1.88;57.41;99918.25;5047721;28;19925;-50
2022/12/11 04:35:10;;;;;;;;;;;;;;;1.75;57.75;99916.44;5050739;28;19932;-50
2022/12/11 04:37:36;;;;;;;;;;;;;;;1.53;58.38;99916.28;5050786;28;20043;-50
2022/12/11 04:40:02;;;;;;;;;;;;;;;1.48;58.84;99911.06;5050166;28;20408;-51
2022/12/11 04:42:28;;;;;;;;;;;;;;;1.27;59.27;99916.06;5052179;28;19927;-50
2022/12/11 04:44:53;;;;;;;;;;;;;;;1.28;59.19;99910.06;5049114;28;20019;-52
2022/12/11 04:47:18;;;;;;;;;;;;;;;1.33;59.30;99912.69;5051956;28;20281;-51
2022/12/11 04:49:44;;;;;;;;;;;;;;;1.22;59.41;99905.69;5047857;28;19972;-51
2022/12/11 04:52:09;;;;;;;;;;;;;;;1.05;60.08;99909.84;5049907;28;19925;-51
2022/12/11 04:54:34;;;;;;;;;;;;;;;1.09;59.91;99898.66;5049150;28;19924;-51
2022/12/11 04:57:00;;;;;;;;;;;;;;;1.28;59.63;99896.22;5050064;28;19925;-51
2022/12/11 04:59:25;;;;;;;;;;;;;;;1.41;59.08;99892.91;5051755;28;19921;-50
2022/12/11 05:01:50;;;;;;;;;;;;;;;1.46;59.21;99891.19;5042392;28;19968;-50
2022/12/11 05:04:16;;;;;;;;;;;;;;;1.30;59.37;99889.34;5043771;28;19991;-49
2022/12/11 05:06:41;;;;;;;;;;;;;;;1.20;59.73;99881.53;5043851;28;19925;-50
2022/12/11 05:09:10;;;;;;;;;;;;;;;1.12;59.94;99888.34;5048656;28;20289;-50
2022/12/11 05:11:35;;;;;;;;;;;;;;;1.23;60.04;99886.69;5039042;28;19956;-54
2022/12/11 05:14:00;;;;;;;;;;;;;;;1.17;59.98;99891.84;5049448;28;19976;-51
2022/12/11 05:16:25;;;;;;;;;;;;;;;1.32;59.59;99900.59;5049742;28;19979;-53
2022/12/11 05:18:51;;;;;;;;;;;;;;;1.41;59.39;99892.91;5048257;28;20415;-51
2022/12/11 05:21:16;;;;;;;;;;;;;;;1.47;58.97;99890.34;5048362;28;19968;-53
2022/12/11 05:23:42;;;;;;;;;;;;;;;1.56;58.94;99895.59;5040260;28;19996;-52
2022/12/11 05:26:09;;;;;;;;;;;;;;;1.49;59.14;99888.63;5040156;28;20256;-50
2022/12/11 05:28:37;;;;;;;;;;;;;;;1.48;59.11;99887.78;5040830;28;20388;-50
2022/12/11 05:31:11;;;;;;;;;;;;;;;1.33;59.64;99882.47;5043929;28;19921;-51
2022/12/11 05:33:37;;;;;;;;;;;;;;;1.36;59.68;99884.25;5042528;28;19924;-52
2022/12/11 05:36:02;;;;;;;;;;;;;;;1.48;59.28;99881.75;5051449;28;20281;-49
2022/12/11 05:38:27;;;;;;;;;;;;;;;1.54;59.10;99881.75;5054313;28;19928;-52
2022/12/11 05:41:03;;;;;;;;;;;;;;;1.63;58.71;99871.44;5054738;28;20323;-51
2022/12/11 05:43:30;;;;;;;;;;;;;;;1.58;58.84;99874.88;5035399;28;19928;-51
2022/12/11 05:45:56;;;;;;;;;;;;;;;1.36;59.30;99872.16;5034113;28;19917;-53
2022/12/11 05:48:21;;;;;;;;;;;;;;;1.28;59.65;99871.22;5039333;28;20269;-50
2022/12/11 05:51:00;;;;;;;;;;;;;;;1.19;59.93;99871.13;5053035;28;19986;-50
2022/12/11 05:53:25;;;;;;;;;;;;;;;1.41;59.34;99873.03;5056532;28;20112;-51
2022/12/11 05:55:51;;;;;;;;;;;;;;;1.55;59.20;99873.13;5046026;28;20499;-51
2022/12/11 05:58:16;;;;;;;;;;;;;;;1.51;59.15;99876.56;5056143;28;19930;-50
2022/12/11 06:00:42;;;;;;;;;;;;;;;1.54;59.22;99874.00;5052548;28;19928;-51
2022/12/11 06:03:07;;;;;;;;;;;;;;;1.54;59.19;99875.72;5044455;28;20292;-53
2022/12/11 06:05:40;;;;;;;;;;;;;;;1.59;58.92;99880.06;5051698;28;20105;-52
2022/12/11 06:08:05;;;;;;;;;;;;;;;1.56;59.13;99877.47;5054040;28;19940;-51
2022/12/11 06:10:31;;;;;;;;;;;;;;;1.62;59.05;99885.28;5044154;28;20320;-51
2022/12/11 06:12:56;;;;;;;;;;;;;;;1.70;58.82;99877.56;5052845;28;19925;-51
2022/12/11 06:15:21;;;;;;;;;;;;;;;1.73;58.60;99886.22;5045832;28;19921;-49
2022/12/11 06:17:46;;;;;;;;;;;;;;;1.84;58.50;99883.69;5042396;28;19938;-53
2022/12/11 06:20:12;;;;;;;;;;;;;;;1.77;58.23;99888.81;5046109;28;19974;-52
2022/12/11 06:22:37;;;;;;;;;;;;;;;1.83;58.38;99878.47;5035961;28;20411;-54
2022/12/11 06:25:03;;;;;;;;;;;;;;;1.91;58.20;99887.16;5048184;28;19921;-53
2022/12/11 06:27:28;;;;;;;;;;;;;;;1.92;58.14;99883.75;5050157;28;19970;-53
2022/12/11 06:29:53;;;;;;;;;;;;;;;1.94;58.26;99882.88;5038138;28;19943;-49
2022/12/11 06:32:18;;;;;;;;;;;;;;;1.95;58.19;99883.72;5033970;28;19925;-51
2022/12/11 06:34:44;;;;;;;;;;;;;;;1.98;58.27;99881.16;5047105;28;20300;-51
2022/12/11 06:37:10;;;;;;;;;;;;;;;1.75;58.74;99872.41;5033278;28;20404;-50
2022/12/11 06:39:35;;;;;;;;;;;;;;;1.88;58.71;99877.66;5042354;28;19928;-54
2022/12/11 06:42:01;;;;;;;;;;;;;;;1.90;58.67;99875.94;5042653;28;19925;-52
2022/12/11 06:44:26;;;;;;;;;;;;;;;1.80;58.80;99870.72;5043736;28;20368;-53
2022/12/11 06:46:51;;;;;;;;;;;;;;;1.77;59.26;99868.09;5051611;28;19931;-51
2022/12/11 06:49:16;;;;;;;;;;;;;;;1.83;59.22;99863.81;5047506;28;20358;-51
2022/12/11 06:51:42;;;;;;;;;;;;;;;1.91;58.96;99866.44;5049854;28;19925;-53
2022/12/11 06:54:07;;;;;;;;;;;;;;;1.99;58.95;99862.16;5038253;28;20011;-52
2022/12/11 06:56:33;;;;;;;;;;;;;;;1.88;59.09;99869.03;5036068;28;19925;-50
2022/12/11 06:58:58;;;;;;;;;;;;;;;2.01;58.87;99872.56;5042191;28;19968;-52
2022/12/11 07:01:25;;;;;;;;;;;;;;;2.00;59.07;99876.88;5048873;28;19956;-53
2022/12/11 07:03:53;;;;;;;;;;;;;;;2.10;58.68;99878.63;5064491;28;19971;-54
2022/12/11 07:06:19;;;;;;;;;;;;;;;2.16;58.83;99873.50;5040072;28;20323;-51
2022/12/11 07:08:44;;;;;;;;;;;;;;;2.29;58.41;99874.41;5036228;28;19925;-53
2022/12/11 07:11:11;;;;;;;;;;;;;;;2.35;58.32;99876.13;5035640;28;19928;-51
2022/12/11 07:13:36;;;;;;;;;;;;;;;2.31;58.34;99871.78;5043090;28;19925;-52
2022/12/11 07:16:03;;;;;;;;;;;;;;;2.37;58.22;99877.88;5038079;28;19921;-51
2022/12/11 07:18:29;;;;;;;;;;;;;;;2.50;57.93;99883.97;5048229;28;20420;-52
2022/12/11 07:20:56;;;;;;;;;;;;;;;2.48;57.83;99880.53;5035538;28;19928;-52
2022/12/11 07:23:22;;;;;;;;;;;;;;;2.64;57.61;99884.88;5037062;28;19921;-53
2022/12/11 07:25:47;;;;;;;;;;;;;;;2.63;57.62;99875.38;5041607;28;20441;-53
2022/12/11 07:28:12;;;;;;;;;;;;;;;2.48;57.60;99872.75;5045646;28;19925;-52
2022/12/11 07:30:38;;;;;;;;;;;;;;;2.62;57.76;99877.94;5045941;28;20447;-53
2022/12/11 07:33:03;;;;;;;;;;;;;;;2.50;57.83;99871.00;5049649;28;19927;-48
2022/12/11 07:35:29;;;;;;;;;;;;;;;2.60;57.43;99875.38;5050765;28;20293;-53
2022/12/11 07:37:55;;;;;;;;;;;;;;;2.73;57.42;99876.25;5043051;28;19928;-53
2022/12/11 07:40:20;;;;;;;;;;;;;;;2.85;56.99;99875.41;5041581;28;20015;-51
2022/12/11 07:42:45;;;;;;;;;;;;;;;2.87;57.13;99873.66;5043826;28;19932;-53
2022/12/11 07:45:11;;;;;;;;;;;;;;;2.82;57.09;99865.88;5046656;28;19976;-55
2022/12/11 07:47:36;;;;;;;;;;;;;;;2.65;57.13;99878.81;5051760;28;20408;-51
2022/12/11 07:50:01;;;;;;;;;;;;;;;2.75;57.30;99884.03;5048948;28;19925;-55
2022/12/11 07:52:26;;;;;;;;;;;;;;;2.59;57.78;99875.34;5052637;28;19929;-54
2022/12/11 07:54:52;;;;;;;;;;;;;;;2.64;57.63;99879.69;5048990;28;19933;-52
2022/12/11 07:57:17;;;;;;;;;;;;;;;2.63;57.78;99875.38;5047496;28;20028;-55
2022/12/11 07:59:42;;;;;;;;;;;;;;;2.75;57.50;99868.47;5041861;28;19971;-53
2022/12/11 08:02:11;;;;;;;;;;;;;;;2.81;57.26;99864.16;5041232;28;19956;-49
2022/12/11 08:04:36;;;;;;;;;;;;;;;2.72;57.41;99869.34;5039135;28;19925;-55
2022/12/11 08:07:01;;;;;;;;;;;;;;;2.65;57.85;99872.78;5051628;28;19929;-52
2022/12/11 08:09:26;;;;;;;;;;;;;;;2.65;57.79;99868.44;5052325;28;20012;-53
2022/12/11 08:11:52;;;;;;;;;;;;;;;2.64;58.06;99871.91;5043662;28;19933;-53
2022/12/11 08:14:18;;;;;;;;;;;;;;;2.79;57.82;99870.19;5049557;28;20008;-51
2022/12/11 08:16:43;;;;;;;;;;;;;;;2.94;57.34;99865.03;5051380;28;19978;-53
2022/12/11 08:19:12;;;;;;;;;;;;;;;2.98;57.39;99864.16;5045760;28;19925;-54
2022/12/11 08:21:38;;;;;;;;;;;;;;;2.99;57.01;99873.69;5033948;28;20068;-52
2022/12/11 08:24:03;;;;;;;;;;;;;;;2.99;56.86;99872.81;5033499;28;20000;-54
2022/12/11 08:26:30;;;;;;;;;;;;;;;2.92;56.70;99879.75;5033622;28;19924;-55
2022/12/11 08:28:55;;;;;;;;;;;;;;;2.90;56.61;99865.91;5033459;28;19917;-56
2022/12/11 08:31:21;;;;;;;;;;;;;;;3.06;56.52;99872.81;5033376;28;19921;-54
2022/12/11 08:33:46;;;;;;;;;;;;;;;3.04;56.63;99861.59;5033869;28;19932;-52
2022/12/11 08:36:16;;;;;;;;;;;;;;;3.21;56.24;99856.41;5034233;28;20011;-52
2022/12/11 08:38:41;;;;;;;;;;;;;;;3.25;56.01;99865.06;5047531;28;19921;-52
2022/12/11 08:41:17;;;;;;;;;;;;;;;3.24;56.00;99873.72;5056622;28;19947;-54
2022/12/11 08:43:43;;;;;;;;;;;;;;;3.06;56.39;99877.16;5056761;28;19924;-53
2022/12/11 08:46:09;;;;;;;;;;;;;;;3.06;56.46;99878.03;5059742;28;19920;-54
2022/12/11 08:48:35;;;;;;;;;;;;;;;2.95;56.52;99884.91;5069958;28;20007;-53
2022/12/11 08:51:01;;;;;;;;;;;;;;;3.02;56.67;99888.41;5055302;28;19964;-52
2022/12/11 08:53:28;;;;;;;;;;;;;;;3.06;56.29;99891.00;5053440;28;20020;-54
2022/12/11 08:55:53;;;;;;;;;;;;;;;3.01;56.25;99882.34;5052715;28;19925;-53
2022/12/11 08:58:18;;;;;;;;;;;;;;;3.08;56.09;99891.03;5048445;28;19925;-53
2022/12/11 09:00:43;;;;;;;;;;;;;;;3.08;56.13;99885.81;5035646;28;20265;-54
2022/12/11 09:03:09;;;;;;;;;;;;;;;3.05;55.83;99876.28;5041698;28;19929;-53
2022/12/11 09:05:36;;;;;;;;;;;;;;;3.15;55.49;99880.66;5035144;28;20353;-53
2022/12/11 09:08:02;;;;;;;;;;;;;;;3.15;55.63;99869.38;5034922;28;20265;-52
2022/12/11 09:10:27;;;;;;;;;;;;;;;3.18;55.65;99864.19;5035078;28;19925;-52
2022/12/11 09:12:53;;;;;;;;;;;;;;;3.11;55.71;99862.44;5034890;28;20016;-53
2022/12/11 09:15:18;;;;;;;;;;;;;;;3.24;55.63;99863.34;5035197;28;19921;-51
2022/12/11 09:17:43;;;;;;;;;;;;;;;3.22;55.59;99869.38;5035232;28;20387;-54
2022/12/11 09:20:09;;;;;;;;;;;;;;;3.28;55.56;99860.72;5034556;28;19924;-52
2022/12/11 09:22:34;;;;;;;;;;;;;;;3.28;55.65;99859.88;5034766;28;19917;-53
2022/12/11 09:25:00;;;;;;;;;;;;;;;3.29;55.50;99856.41;5034834;28;20262;-53
2022/12/11 09:27:25;;;;;;;;;;;;;;;3.31;55.27;99859.84;5035080;28;19928;-56
2022/12/11 09:29:50;;;;;;;;;;;;;;;3.41;55.30;99857.25;5035138;28;19957;-51
2022/12/11 09:32:15;;;;;;;;;;;;;;;3.40;55.18;99859.88;5034731;28;19921;-54
2022/12/11 09:34:41;;;;;;;;;;;;;;;3.15;55.47;99853.78;5034480;28;19928;-52
2022/12/11 09:37:06;;;;;;;;;;;;;;;3.12;55.75;99846.88;5035335;28;19940;-52
2022/12/11 09:39:31;;;;;;;;;;;;;;;3.08;55.98;99846.91;5039227;28;20368;-52
2022/12/11 09:42:20;;;;;;;;;;;;;;;3.09;56.20;99833.91;5032858;28;19929;-55
2022/12/11 09:44:45;;;;;;;;;;;;;;;3.05;56.64;99839.97;5041874;28;19920;-54
2022/12/11 09:47:19;;;;;;;;;;;;;;;3.19;56.33;99834.75;5054374;28;19917;-53
2022/12/11 09:49:45;;;;;;;;;;;;;;;3.25;56.36;99829.56;5051046;28;19952;-54
2022/12/11 09:52:14;;;;;;;;;;;;;;;3.40;56.00;99833.88;5044786;28;20383;-52
2022/12/11 09:54:42;;;;;;;;;;;;;;;3.47;56.17;99843.38;5053169;28;20016;-52
2022/12/11 09:57:13;;;;;;;;;;;;;;;3.48;55.84;99845.13;5046009;28;20062;-53
2022/12/11 09:59:57;;;;;;;;;;;;;;;3.21;56.32;99846.88;5054076;28;19979;-52
2022/12/11 10:02:22;;;;;;;;;;;;;;;3.40;56.23;99849.47;5053929;28;20262;-51
2022/12/11 10:04:57;;;;;;;;;;;;;;;3.22;56.58;99853.78;5042629;28;20029;-53
2022/12/11 10:07:33;;;;;;;;;;;;;;;3.06;57.05;99846.88;5034279;28;19946;-53
2022/12/11 10:10:17;;;;;;;;;;;;;;;3.24;56.89;99834.78;5033878;28;19918;-51
2022/12/11 10:12:58;;;;;;;;;;;;;;;3.11;57.17;99839.97;5034012;28;19962;-51
2022/12/11 10:15:35;;;;;;;;;;;;;;;2.92;57.33;99833.03;5034020;28;20427;-53
2022/12/11 10:18:03;;;;;;;;;;;;;;;2.81;57.79;99824.38;5034043;28;19917;-53
2022/12/11 10:20:32;;;;;;;;;;;;;;;2.92;57.43;99817.47;5033150;28;19970;-52
2022/12/11 10:22:58;;;;;;;;;;;;;;;2.71;57.79;99811.41;5032972;28;20274;-54
2022/12/11 10:25:23;;;;;;;;;;;;;;;2.87;57.65;99812.28;5033856;28;19938;-51
2022/12/11 10:27:49;;;;;;;;;;;;;;;2.72;58.20;99807.06;5033928;28;19943;-56
2022/12/11 10:30:16;;;;;;;;;;;;;;;2.58;58.33;99801.00;5033905;28;19926;-50
2022/12/11 10:32:57;;;;;;;;;;;;;;;2.46;59.06;99794.06;5033817;28;19918;-51
2022/12/11 10:35:28;;;;;;;;;;;;;;;2.35;59.30;99793.16;5033726;28;19917;-53
2022/12/11 10:38:14;;;;;;;;;;;;;;;2.16;60.34;99787.09;5032663;28;19934;-53
2022/12/11 10:40:48;;;;;;;;;;;;;;;1.98;60.57;99780.97;5036309;28;20016;-56
2022/12/11 10:43:14;;;;;;;;;;;;;;;2.36;59.99;99771.59;5044043;28;19921;-51
2022/12/11 10:45:39;;;;;;;;;;;;;;;2.37;59.92;99765.53;5048860;28;20051;-54
2022/12/11 10:48:13;;;;;;;;;;;;;;;2.37;60.13;99773.31;5047213;28;19925;-52
2022/12/11 10:50:40;;;;;;;;;;;;;;;2.35;60.00;99769.81;5038304;28;19932;-53
2022/12/11 10:53:05;;;;;;;;;;;;;;;2.64;59.52;99756.91;5043120;28;20020;-53
2022/12/11 10:55:38;;;;;;;;;;;;;;;2.75;59.25;99759.50;5047852;28;20089;-55
2022/12/11 10:58:05;;;;;;;;;;;;;;;2.79;58.90;99756.03;5048178;28;19929;-52
2022/12/11 11:00:35;;;;;;;;;;;;;;;2.87;58.97;99750.00;5036510;28;19928;-53
2022/12/11 11:03:01;;;;;;;;;;;;;;;2.81;58.78;99755.19;5038866;28;21389;-53
2022/12/11 11:05:29;;;;;;;;;;;;;;;2.92;58.60;99748.25;5042576;28;20394;-51
2022/12/11 11:08:11;;;;;;;;;;;;;;;2.75;59.26;99755.16;5046918;28;19921;-52
2022/12/11 11:10:36;;;;;;;;;;;;;;;2.71;59.31;99745.66;5049146;28;20050;-51
2022/12/11 11:13:01;;;;;;;;;;;;;;;2.79;59.45;99745.66;5050100;28;20397;-55
2022/12/11 11:15:28;;;;;;;;;;;;;;;2.47;60.04;99741.31;5039096;28;19941;-55
2022/12/11 11:17:55;;;;;;;;;;;;;;;2.54;60.34;99729.22;5041964;28;19974;-54
2022/12/11 11:20:24;;;;;;;;;;;;;;;2.37;60.79;99737.00;5049308;28;20368;-55
2022/12/11 11:22:54;;;;;;;;;;;;;;;2.40;60.84;99730.09;5040677;28;20395;-51
2022/12/11 11:25:26;;;;;;;;;;;;;;;2.36;61.22;99722.31;5039352;28;19929;-54
2022/12/11 11:27:52;;;;;;;;;;;;;;;2.26;61.60;99707.59;5039368;28;19975;-54
2022/12/11 11:30:17;;;;;;;;;;;;;;;2.35;61.53;99713.66;5042982;28;19921;-54
2022/12/11 11:32:42;;;;;;;;;;;;;;;2.52;60.93;99710.22;5036952;28;19925;-55
2022/12/11 11:35:10;;;;;;;;;;;;;;;2.74;60.50;99711.94;5049040;28;19925;-54
2022/12/11 11:37:37;;;;;;;;;;;;;;;2.57;60.72;99701.56;5041503;28;19917;-54
2022/12/11 11:40:15;;;;;;;;;;;;;;;2.59;60.57;99719.72;5038863;28;19921;-55
2022/12/11 11:42:56;;;;;;;;;;;;;;;2.84;60.06;99715.41;5042265;28;19921;-56
2022/12/11 11:45:26;;;;;;;;;;;;;;;2.91;59.86;99705.03;5037511;28;19932;-52
2022/12/11 11:48:15;;;;;;;;;;;;;;;2.87;59.66;99712.78;5043703;28;19928;-53
2022/12/11 11:50:44;;;;;;;;;;;;;;;2.97;59.74;99705.00;5048486;28;19935;-54
2022/12/11 11:53:40;;;;;;;;;;;;;;;2.99;59.66;99699.78;5060049;28;20274;-55
2022/12/11 11:56:22;;;;;;;;;;;;;;;2.89;60.28;99700.69;5050473;28;19921;-55
2022/12/11 11:58:55;;;;;;;;;;;;;;;2.92;60.27;99695.50;5049634;28;19952;-53
2022/12/11 12:01:21;;;;;;;;;;;;;;;2.83;60.73;99690.31;5037183;28;20372;-56
2022/12/11 12:03:47;;;;;;;;;;;;;;;2.82;61.03;99686.84;5037609;28;19931;-54
2022/12/11 12:06:24;;;;;;;;;;;;;;;2.87;60.68;99685.13;5046682;28;19927;-54
2022/12/11 12:08:52;;;;;;;;;;;;;;;3.30;59.85;99681.56;5039556;28;20015;-54
2022/12/11 12:11:18;;;;;;;;;;;;;;;3.35;59.72;99674.59;5052599;28;19947;-54
2022/12/11 12:13:57;;;;;;;;;;;;;;;3.26;59.93;99672.03;5049569;28;20296;-53
2022/12/11 12:16:31;;;;;;;;;;;;;;;3.17;60.44;99671.22;5045909;28;19921;-52
2022/12/11 12:19:15;;;;;;;;;;;;;;;2.99;61.00;99663.47;5048138;28;20044;-55
2022/12/11 12:21:43;;;;;;;;;;;;;;;2.88;61.60;99681.66;5040191;28;19927;-55
2022/12/11 12:24:27;;;;;;;;;;;;;;;3.15;60.86;99672.97;5040352;28;20441;-55
2022/12/11 12:26:58;;;;;;;;;;;;;;;3.29;60.34;99669.44;5049149;28;19971;-55
2022/12/11 12:29:42;;;;;;;;;;;;;;;3.44;60.47;99665.06;5037412;28;19982;-58
2022/12/11 12:32:26;;;;;;;;;;;;;;;3.22;61.24;99656.47;5041154;28;19924;-55
2022/12/11 12:34:54;;;;;;;;;;;;;;;3.36;61.01;99660.78;5043657;28;19928;-52
2022/12/11 12:37:25;;;;;;;;;;;;;;;3.21;61.34;99659.09;5043058;28;19932;-63
2022/12/11 12:39:59;;;;;;;;;;;;;;;3.43;60.77;99654.66;5047754;28;19925;-58
2022/12/11 12:42:32;;;;;;;;;;;;;;;3.06;61.92;99652.19;5037861;28;19929;-56
2022/12/11 12:45:00;;;;;;;;;;;;;;;3.30;61.21;99647.78;5041629;28;19921;-56
2022/12/11 12:47:28;;;;;;;;;;;;;;;3.22;61.14;99643.50;5036203;28;19921;-56
2022/12/11 12:49:54;;;;;;;;;;;;;;;3.35;60.82;99648.63;5034961;28;19921;-57
2022/12/11 12:52:25;;;;;;;;;;;;;;;3.29;61.33;99644.34;5034895;28;19925;-58
2022/12/11 12:57:37;;;;;;;;;;;;;;;3.20;61.28;99640.06;5038385;28;19936;-52
2022/12/11 13:00:04;;;;;;;;;;;;;;;3.20;61.44;99641.78;5039669;28;19925;-56
2022/12/11 13:02:30;;;;;;;;;;;;;;;3.07;61.48;99633.19;5038342;28;19921;-56
2022/12/11 13:04:57;;;;;;;;;;;;;;;3.32;60.98;99630.50;5034937;28;20266;-57
2022/12/11 13:07:31;;;;;;;;;;;;;;;3.30;60.76;99634.81;5050317;28;20008;-56
2022/12/11 13:09:56;;;;;;;;;;;;;;;3.28;60.75;99628.78;5045575;28;20011;-56